Terminal Aerodrome Forecast
Issued by NWS

Home | Current Version | Previous Version | Text Only | Print | Product List | Glossary On
Versions: 1 2 3 4 5 6 7 8 9 10 11 12 13 14 15 16 17 18 19 20 21 22
000
FTUS43 KGRB 290500
TAFATW
TAF
KATW 290520Z 2906/3006 28005KT P6SM SCT060 BKN080
     FM290900 32005KT P6SM SCT080
     FM291600 32008KT P6SM VCSH BKN050 BKN090=

USA.gov is the U.S. government's official web portal to all federal, state and local government web resources and services.